createdAt,value
2018-07-03T00:01:22.494Z,18.20
2018-07-03T00:03:26.901Z,18.10
2018-07-03T00:05:31.220Z,18.10
2018-07-03T00:07:35.989Z,18.00
2018-07-03T00:09:40.341Z,18.00
2018-07-03T00:11:44.808Z,18.00
2018-07-03T00:13:49.187Z,17.90
2018-07-03T00:15:53.559Z,17.90
2018-07-03T00:17:57.934Z,17.90
2018-07-03T00:20:02.307Z,17.80
2018-07-03T00:22:07.513Z,17.70
2018-07-03T00:24:11.796Z,17.70
2018-07-03T00:26:16.142Z,17.70
2018-07-03T00:28:20.439Z,17.60
2018-07-03T00:30:24.777Z,17.60
2018-07-03T00:32:29.212Z,17.60
2018-07-03T00:34:33.537Z,17.60
2018-07-03T00:36:37.856Z,17.50
2018-07-03T00:38:42.266Z,17.50
2018-07-03T00:40:46.595Z,17.40
2018-07-03T00:42:51.037Z,17.40
2018-07-03T00:44:55.315Z,17.40
2018-07-03T00:46:59.778Z,17.30
2018-07-03T00:49:04.131Z,17.30
2018-07-03T00:51:08.501Z,17.30
2018-07-03T00:53:12.849Z,17.20
2018-07-03T00:55:17.218Z,17.20
2018-07-03T00:57:21.539Z,17.20
2018-07-03T00:59:25.951Z,17.10
2018-07-03T01:01:30.267Z,17.10
2018-07-03T01:03:34.607Z,17.10
2018-07-03T01:05:38.915Z,17.00
2018-07-03T01:07:43.393Z,17.00
2018-07-03T01:09:47.847Z,17.00
2018-07-03T01:11:52.265Z,17.00
2018-07-03T01:13:57.275Z,16.90
2018-07-03T01:16:01.671Z,16.90
2018-07-03T01:18:06.883Z,16.90
2018-07-03T01:20:11.258Z,16.80
2018-07-03T01:22:15.599Z,16.80
2018-07-03T01:24:19.956Z,16.80
2018-07-03T01:26:24.629Z,16.70
2018-07-03T01:28:28.995Z,16.70
2018-07-03T01:30:33.328Z,16.70
2018-07-03T01:32:37.836Z,16.60
2018-07-03T01:34:42.144Z,16.60
2018-07-03T01:36:46.481Z,16.60
2018-07-03T01:38:50.860Z,16.60
2018-07-03T01:40:55.171Z,16.60
2018-07-03T01:42:59.460Z,16.50
2018-07-03T01:45:03.839Z,16.50
2018-07-03T01:47:08.196Z,16.50
2018-07-03T01:49:12.478Z,16.40
2018-07-03T01:51:16.885Z,16.40
2018-07-03T01:53:21.209Z,16.40
2018-07-03T01:55:25.523Z,16.30
2018-07-03T01:57:29.832Z,16.20
2018-07-03T01:59:34.238Z,16.20
2018-07-03T02:01:38.631Z,16.20
2018-07-03T02:03:42.959Z,16.20
2018-07-03T02:05:47.309Z,16.20
2018-07-03T02:07:52.948Z,16.20
2018-07-03T02:09:57.217Z,16.20
2018-07-03T02:12:01.556Z,16.10
2018-07-03T02:14:06.035Z,16.10
2018-07-03T02:16:10.337Z,16.10
2018-07-03T02:18:14.755Z,16.00
2018-07-03T02:20:19.097Z,15.90
2018-07-03T02:22:23.422Z,16.00
2018-07-03T02:24:27.701Z,15.90
2018-07-03T02:26:32.050Z,15.90
2018-07-03T02:28:36.679Z,15.90
2018-07-03T02:30:40.980Z,15.90
2018-07-03T02:32:45.310Z,15.80
2018-07-03T02:34:49.582Z,15.80
2018-07-03T02:36:54.400Z,15.70
2018-07-03T02:38:58.716Z,15.70
2018-07-03T02:41:03.065Z,15.70
2018-07-03T02:43:07.338Z,15.70
2018-07-03T02:45:11.723Z,15.60
2018-07-03T02:47:16.096Z,15.60
2018-07-03T02:49:20.401Z,15.60
2018-07-03T02:51:24.709Z,15.60
2018-07-03T02:53:29.014Z,15.60
2018-07-03T02:55:33.288Z,15.60
2018-07-03T02:57:37.560Z,15.50
2018-07-03T02:59:41.885Z,15.50
2018-07-03T03:01:46.373Z,15.40
2018-07-03T03:03:50.745Z,15.30
2018-07-03T03:05:55.064Z,15.30
2018-07-03T03:07:59.433Z,15.30
2018-07-03T03:10:03.933Z,15.30
2018-07-03T03:12:08.296Z,15.30
2018-07-03T03:14:12.643Z,15.30
2018-07-03T03:16:17.015Z,15.20
2018-07-03T03:18:21.468Z,15.20
2018-07-03T03:20:25.820Z,15.20
2018-07-03T03:22:30.229Z,15.20
2018-07-03T03:24:34.587Z,15.20
2018-07-03T03:26:38.884Z,15.10
2018-07-03T03:28:43.415Z,15.10
2018-07-03T03:30:47.754Z,15.00
2018-07-03T03:32:53.090Z,15.00
2018-07-03T03:34:57.492Z,14.90
2018-07-03T03:37:02.089Z,14.80
2018-07-03T03:39:07.578Z,14.80
2018-07-03T03:41:11.937Z,14.80
2018-07-03T03:43:16.229Z,14.70
2018-07-03T03:45:20.650Z,14.70
2018-07-03T03:47:25.043Z,14.70
2018-07-03T03:49:29.459Z,14.70
2018-07-03T03:51:33.734Z,14.70
2018-07-03T03:53:38.163Z,14.70
2018-07-03T03:55:42.484Z,14.70
2018-07-03T03:57:46.871Z,14.70
2018-07-03T03:59:51.282Z,14.70
2018-07-03T04:01:55.660Z,14.70
2018-07-03T04:04:00.133Z,14.70
2018-07-03T04:06:04.610Z,14.70
2018-07-03T04:08:09.127Z,14.70
2018-07-03T04:10:13.531Z,14.70
2018-07-03T04:12:17.906Z,14.70
2018-07-03T04:14:22.316Z,14.70
2018-07-03T04:16:26.645Z,14.70
2018-07-03T04:18:33.441Z,14.70
2018-07-03T04:20:37.954Z,14.70
2018-07-03T04:22:42.334Z,14.70
2018-07-03T04:24:46.703Z,14.60
2018-07-03T04:26:51.712Z,14.70
2018-07-03T04:28:56.130Z,14.70
2018-07-03T04:31:00.708Z,14.70
2018-07-03T04:33:05.289Z,14.70
2018-07-03T04:35:09.663Z,14.70
2018-07-03T04:37:14.049Z,14.60
2018-07-03T04:39:18.375Z,14.60
2018-07-03T04:41:22.795Z,14.60
2018-07-03T04:43:27.177Z,14.60
2018-07-03T04:45:31.633Z,14.60
2018-07-03T04:47:36.016Z,14.70
2018-07-03T04:49:40.392Z,14.70
2018-07-03T04:51:44.751Z,14.80
2018-07-03T04:53:49.143Z,14.80
2018-07-03T04:55:53.610Z,14.90
2018-07-03T04:57:57.981Z,14.90
2018-07-03T05:00:02.530Z,14.90
2018-07-03T05:02:06.946Z,15.00
2018-07-03T05:04:11.305Z,15.00
2018-07-03T05:08:19.677Z,15.10
2018-07-03T05:10:23.972Z,15.10
2018-07-03T05:12:28.386Z,15.10
2018-07-03T05:14:32.765Z,15.20
2018-07-03T05:16:37.153Z,15.20
2018-07-03T05:18:41.580Z,15.20
2018-07-03T05:20:46.019Z,15.20
2018-07-03T05:22:50.528Z,15.30
2018-07-03T05:24:54.893Z,15.40
2018-07-03T05:26:59.267Z,15.40
2018-07-03T05:29:03.615Z,15.50
2018-07-03T05:33:12.037Z,15.60
2018-07-03T05:35:16.442Z,15.70
2018-07-03T05:37:20.792Z,15.80
2018-07-03T05:39:25.171Z,15.90
2018-07-03T05:41:29.619Z,15.90
2018-07-03T05:43:34.063Z,16.00
2018-07-03T05:45:38.468Z,16.20
2018-07-03T05:47:43.069Z,16.30
2018-07-03T05:49:47.483Z,16.40
2018-07-03T05:51:51.905Z,16.50
2018-07-03T05:53:56.466Z,16.60
2018-07-03T05:56:00.811Z,16.80
2018-07-03T05:58:05.448Z,16.90
2018-07-03T06:00:09.907Z,17.10
2018-07-03T06:02:14.327Z,17.30
2018-07-03T06:04:18.811Z,17.40
2018-07-03T06:06:23.242Z,17.70
2018-07-03T06:08:27.680Z,17.80
2018-07-03T06:10:32.078Z,18.00
2018-07-03T06:12:36.427Z,18.10
2018-07-03T06:14:40.849Z,18.30
2018-07-03T06:16:45.169Z,18.50
2018-07-03T06:18:49.689Z,18.70
2018-07-03T06:20:54.107Z,18.80
2018-07-03T06:22:58.623Z,18.90
2018-07-03T06:25:03.161Z,19.10
2018-07-03T06:27:07.571Z,19.20
2018-07-03T06:29:12.101Z,19.40
2018-07-03T06:31:16.495Z,19.50
2018-07-03T06:33:20.840Z,19.70
2018-07-03T06:35:25.298Z,19.80
2018-07-03T06:37:29.804Z,20.00
2018-07-03T06:41:38.115Z,20.30
2018-07-03T06:43:43.188Z,20.40
2018-07-03T06:45:47.572Z,20.50
2018-07-03T06:47:51.965Z,20.60
2018-07-03T06:49:56.467Z,20.70
2018-07-03T06:52:00.790Z,20.80
2018-07-03T06:54:05.341Z,20.90
2018-07-03T06:56:09.753Z,21.00
2018-07-03T06:58:14.229Z,21.10
2018-07-03T07:00:18.655Z,21.30
2018-07-03T07:02:23.207Z,21.30
2018-07-03T07:04:27.556Z,21.30
2018-07-03T07:06:31.957Z,21.30
2018-07-03T07:08:36.409Z,21.40
2018-07-03T07:10:40.801Z,21.50
2018-07-03T07:12:45.223Z,21.70
2018-07-03T07:14:49.815Z,21.80
2018-07-03T07:16:54.297Z,21.90
2018-07-03T07:18:58.649Z,22.00
2018-07-03T07:21:03.184Z,22.00
2018-07-03T07:23:07.620Z,22.10
2018-07-03T07:25:12.049Z,22.20
2018-07-03T07:27:16.530Z,22.30
2018-07-03T07:29:20.979Z,22.40
2018-07-03T07:31:25.378Z,22.50
2018-07-03T07:33:29.776Z,22.60
2018-07-03T07:35:34.232Z,22.70
2018-07-03T07:37:38.802Z,22.70
2018-07-03T07:39:43.175Z,22.60
2018-07-03T07:45:55.648Z,23.00
2018-07-03T07:48:00.179Z,23.20
2018-07-03T07:50:05.286Z,23.30
2018-07-03T07:52:09.942Z,23.50
2018-07-03T07:54:14.474Z,23.60
2018-07-03T07:56:18.993Z,23.80
2018-07-03T07:58:23.486Z,23.90
2018-07-03T08:00:28.017Z,24.10
2018-07-03T08:02:32.484Z,24.20
2018-07-03T08:04:36.942Z,24.30
2018-07-03T08:06:41.441Z,24.40
2018-07-03T08:08:46.012Z,24.60
2018-07-03T08:10:51.183Z,24.70
2018-07-03T08:12:55.608Z,24.90
2018-07-03T08:15:00.088Z,25.00
2018-07-03T08:17:04.629Z,25.00
2018-07-03T08:19:09.053Z,24.90
2018-07-03T08:21:13.531Z,24.90
2018-07-03T08:23:18.022Z,24.90
2018-07-03T08:25:22.391Z,24.80
2018-07-03T08:27:26.838Z,24.70
2018-07-03T08:29:31.225Z,24.90
2018-07-03T08:31:35.620Z,25.10
2018-07-03T08:33:40.221Z,25.30
2018-07-03T08:35:44.665Z,25.50
2018-07-03T08:37:49.178Z,25.60
2018-07-03T08:39:53.612Z,25.70
2018-07-03T08:41:58.082Z,25.90
2018-07-03T08:44:02.576Z,26.00
2018-07-03T08:46:07.026Z,26.00
2018-07-03T08:48:11.689Z,26.00
2018-07-03T08:50:16.078Z,25.90
2018-07-03T08:52:20.541Z,25.80
2018-07-03T08:54:25.248Z,25.80
2018-07-03T08:56:29.754Z,25.80
2018-07-03T08:58:34.315Z,26.00
2018-07-03T09:00:38.851Z,26.20
2018-07-03T09:02:45.069Z,26.50
2018-07-03T09:04:49.570Z,26.70
2018-07-03T09:06:54.451Z,26.70
2018-07-03T09:08:58.974Z,26.90
2018-07-03T09:11:03.769Z,27.10
2018-07-03T09:13:08.504Z,27.10
2018-07-03T09:15:13.026Z,27.00
2018-07-03T09:17:22.567Z,26.90
2018-07-03T09:19:27.001Z,27.00
2018-07-03T09:21:31.410Z,27.20
2018-07-03T09:23:35.916Z,27.10
2018-07-03T09:25:40.353Z,27.10
2018-07-03T09:27:44.769Z,27.10
2018-07-03T09:29:49.362Z,27.30
2018-07-03T09:31:53.834Z,27.50
2018-07-03T09:33:59.479Z,27.60
2018-07-03T09:36:04.054Z,27.40
2018-07-03T09:38:08.474Z,27.30
2018-07-03T09:40:12.837Z,27.20
2018-07-03T09:42:17.336Z,27.10
2018-07-03T09:44:22.158Z,27.10
2018-07-03T09:48:31.493Z,27.10
2018-07-03T09:50:35.882Z,27.20
2018-07-03T09:52:40.369Z,27.40
2018-07-03T09:54:44.838Z,27.50
2018-07-03T09:56:49.165Z,27.60
2018-07-03T09:58:53.738Z,27.90
2018-07-03T10:00:58.603Z,28.00
2018-07-03T10:03:03.229Z,28.00
2018-07-03T10:05:07.687Z,28.10
2018-07-03T10:07:12.342Z,28.30
2018-07-03T10:09:16.892Z,28.30
2018-07-03T10:11:21.376Z,28.20
2018-07-03T10:13:25.789Z,28.20
2018-07-03T10:15:31.140Z,28.20
2018-07-03T10:17:35.681Z,28.20
2018-07-03T10:19:41.328Z,28.10
2018-07-03T10:21:45.788Z,28.10
2018-07-03T10:23:50.184Z,28.10
2018-07-03T10:25:54.552Z,28.10
2018-07-03T10:27:59.077Z,28.00
2018-07-03T10:30:03.602Z,28.20
2018-07-03T10:32:08.223Z,28.60
2018-07-03T10:34:12.790Z,28.70
2018-07-03T10:36:17.187Z,29.00
2018-07-03T10:38:21.675Z,29.20
2018-07-03T10:40:26.119Z,29.20
2018-07-03T10:42:30.470Z,29.40
2018-07-03T10:44:34.978Z,29.40
2018-07-03T10:46:39.428Z,29.60
2018-07-03T10:48:44.134Z,29.70
2018-07-03T10:50:50.239Z,29.80
2018-07-03T10:52:54.688Z,30.10
2018-07-03T10:54:59.406Z,30.30
2018-07-03T10:57:03.858Z,30.00
2018-07-03T10:59:08.527Z,30.00
2018-07-03T11:01:13.052Z,30.00
2018-07-03T11:03:17.585Z,30.20
2018-07-03T11:05:22.487Z,30.20
2018-07-03T11:07:26.912Z,30.10
2018-07-03T11:09:31.350Z,29.90
2018-07-03T11:11:35.811Z,29.80
2018-07-03T11:13:40.221Z,29.70
2018-07-03T11:15:44.660Z,29.70
2018-07-03T11:17:49.170Z,29.50
2018-07-03T11:19:53.735Z,29.70
2018-07-03T11:21:58.382Z,30.00
2018-07-03T11:24:03.117Z,29.90
2018-07-03T11:26:08.865Z,29.90
2018-07-03T11:28:13.565Z,29.70
2018-07-03T11:30:18.058Z,29.30
2018-07-03T11:32:22.471Z,29.30
2018-07-03T11:34:27.010Z,29.50
2018-07-03T11:36:31.588Z,29.80
2018-07-03T11:38:36.390Z,30.10
2018-07-03T11:40:40.849Z,30.10
2018-07-03T11:42:45.338Z,30.10
2018-07-03T11:44:49.899Z,30.10
2018-07-03T11:46:54.196Z,30.10
2018-07-03T11:48:58.666Z,30.20
2018-07-03T11:51:03.592Z,30.20
2018-07-03T11:53:08.067Z,30.20
2018-07-03T11:55:12.635Z,30.30
2018-07-03T11:57:17.070Z,30.60
2018-07-03T11:59:22.262Z,30.70
2018-07-03T12:01:27.038Z,30.90
2018-07-03T12:03:32.320Z,30.70
2018-07-03T12:05:36.845Z,30.70
2018-07-03T12:07:41.459Z,30.90
2018-07-03T12:09:46.591Z,30.70
2018-07-03T12:11:51.248Z,30.80
2018-07-03T12:13:55.725Z,30.90
2018-07-03T12:16:00.246Z,31.20
2018-07-03T12:18:08.989Z,31.40
2018-07-03T12:20:13.797Z,31.60
2018-07-03T12:24:22.336Z,31.10
2018-07-03T12:26:27.262Z,30.80
2018-07-03T12:28:31.762Z,30.70
2018-07-03T12:30:36.230Z,30.70
2018-07-03T12:32:40.818Z,30.40
2018-07-03T12:34:45.163Z,30.50
2018-07-03T12:36:49.770Z,30.30
2018-07-03T12:38:55.737Z,30.40
2018-07-03T12:41:00.637Z,30.40
2018-07-03T12:43:05.705Z,30.50
2018-07-03T12:45:10.685Z,30.50
2018-07-03T12:47:17.259Z,30.40
2018-07-03T12:49:21.675Z,30.20
2018-07-03T12:53:30.160Z,30.50
2018-07-03T12:55:34.844Z,30.60
2018-07-03T12:57:39.396Z,30.40
2018-07-03T12:59:47.910Z,30.00
2018-07-03T13:01:55.104Z,29.90
2018-07-03T13:04:00.919Z,30.00
2018-07-03T13:06:08.590Z,30.10
2018-07-03T13:08:13.219Z,30.10
2018-07-03T13:10:18.286Z,30.40
2018-07-03T13:12:22.793Z,30.70
2018-07-03T13:14:27.217Z,31.00
2018-07-03T13:16:31.644Z,31.20
2018-07-03T13:18:36.162Z,31.50
2018-07-03T13:20:42.911Z,31.80
2018-07-03T13:22:48.163Z,32.10
2018-07-03T13:24:52.669Z,32.30
2018-07-03T13:26:59.392Z,32.20
2018-07-03T13:29:03.978Z,32.00
2018-07-03T13:31:08.897Z,32.00
2018-07-03T13:33:13.455Z,32.20
2018-07-03T13:37:21.858Z,32.60
2018-07-03T13:39:26.363Z,32.80
2018-07-03T13:41:30.779Z,32.70
2018-07-03T13:43:35.239Z,32.10
2018-07-03T13:45:39.699Z,32.10
2018-07-03T13:47:44.075Z,32.20
2018-07-03T13:49:48.740Z,32.30
2018-07-03T13:51:53.161Z,32.40
2018-07-03T13:53:57.560Z,32.50
2018-07-03T13:56:02.007Z,32.60
2018-07-03T13:58:06.908Z,32.80
2018-07-03T14:00:11.435Z,32.80
2018-07-03T14:02:15.857Z,32.80
2018-07-03T14:04:20.204Z,32.80
2018-07-03T14:06:24.776Z,32.90
2018-07-03T14:08:29.148Z,32.90
2018-07-03T14:10:33.591Z,33.00
2018-07-03T14:12:38.001Z,33.10
2018-07-03T14:14:42.553Z,33.20
2018-07-03T14:16:47.042Z,33.40
2018-07-03T14:18:51.402Z,33.30
2018-07-03T14:20:58.570Z,32.70
2018-07-03T14:23:02.956Z,32.30
2018-07-03T14:25:07.419Z,32.10
2018-07-03T14:27:11.767Z,32.20
2018-07-03T14:29:16.205Z,32.40
2018-07-03T14:31:20.690Z,32.50
2018-07-03T14:33:25.070Z,32.60
2018-07-03T14:35:29.519Z,32.70
2018-07-03T14:37:34.043Z,32.80
2018-07-03T14:39:38.470Z,32.80
2018-07-03T14:41:43.243Z,32.70
2018-07-03T14:43:47.710Z,32.80
2018-07-03T14:45:52.208Z,32.80
2018-07-03T14:47:56.652Z,32.80
2018-07-03T14:50:01.124Z,32.90
2018-07-03T14:52:06.026Z,32.90
2018-07-03T14:54:11.845Z,33.10
2018-07-03T14:56:16.506Z,33.10
2018-07-03T14:58:21.006Z,33.20
2018-07-03T15:00:27.762Z,33.20
2018-07-03T15:02:39.589Z,33.20
2018-07-03T15:04:45.183Z,33.00
2018-07-03T15:06:50.451Z,32.80
2018-07-03T15:08:55.284Z,32.60
2018-07-03T15:11:00.007Z,32.60
2018-07-03T15:13:04.980Z,32.50
2018-07-03T15:15:09.545Z,32.40
2018-07-03T15:17:13.969Z,32.40
2018-07-03T15:19:23.813Z,32.40
2018-07-03T15:21:28.190Z,32.30
2018-07-03T15:23:32.623Z,32.30
2018-07-03T15:25:37.466Z,32.40
2018-07-03T15:27:42.045Z,32.40
2018-07-03T15:29:48.019Z,32.40
2018-07-03T15:31:53.193Z,32.40
2018-07-03T15:33:58.995Z,32.40
2018-07-03T15:36:04.387Z,32.40
2018-07-03T15:38:10.002Z,32.40
2018-07-03T15:40:15.207Z,32.30
2018-07-03T15:42:21.063Z,32.20
2018-07-03T15:44:37.249Z,32.10
2018-07-03T15:46:42.425Z,32.10
2018-07-03T15:48:47.454Z,32.10
2018-07-03T15:50:55.743Z,32.10
2018-07-03T15:53:01.637Z,32.00
2018-07-03T15:55:09.535Z,32.10
2018-07-03T15:57:15.498Z,32.20
2018-07-03T15:59:24.461Z,32.20
2018-07-03T16:01:30.191Z,32.20
2018-07-03T16:07:57.318Z,32.20
2018-07-03T16:10:02.042Z,32.20
2018-07-03T16:12:07.213Z,31.90
2018-07-03T16:14:13.982Z,31.90
2018-07-03T16:16:19.867Z,31.90
2018-07-03T16:18:27.240Z,31.90
2018-07-03T16:20:37.111Z,31.70
2018-07-03T16:22:41.797Z,31.60
2018-07-03T16:24:46.633Z,31.40
2018-07-03T16:26:51.698Z,31.20
2018-07-03T16:28:56.540Z,31.00
2018-07-03T16:31:01.347Z,30.90
2018-07-03T16:33:07.066Z,30.80
2018-07-03T16:35:14.137Z,30.70
2018-07-03T16:37:19.204Z,30.60
2018-07-03T16:39:24.404Z,30.70
2018-07-03T16:41:29.152Z,30.70
2018-07-03T16:43:34.239Z,30.70
2018-07-03T16:45:40.892Z,30.70
2018-07-03T16:47:46.779Z,30.70
2018-07-03T16:49:52.010Z,30.60
2018-07-03T16:51:57.015Z,30.60
2018-07-03T16:54:02.207Z,30.50
2018-07-03T16:56:08.639Z,30.50
2018-07-03T16:58:18.396Z,30.50
2018-07-03T17:00:26.470Z,30.50
2018-07-03T17:02:33.032Z,30.50
2018-07-03T17:04:41.089Z,30.50
2018-07-03T17:06:46.049Z,30.50
2018-07-03T17:08:53.057Z,30.40
2018-07-03T17:10:58.909Z,30.20
2018-07-03T17:13:11.010Z,30.20
2018-07-03T17:15:18.015Z,30.20
2018-07-03T17:17:25.750Z,30.20
2018-07-03T17:19:37.625Z,30.10
2018-07-03T17:21:43.306Z,30.00
2018-07-03T17:25:56.410Z,29.80
2018-07-03T17:28:03.624Z,29.80
2018-07-03T17:30:10.041Z,29.80
2018-07-03T17:32:16.057Z,29.80
2018-07-03T17:34:22.335Z,29.70
2018-07-03T17:36:28.867Z,29.60
2018-07-03T17:38:34.187Z,29.40
2018-07-03T17:40:54.409Z,29.20
2018-07-03T17:43:38.347Z,29.20
2018-07-03T17:45:57.402Z,29.10
2018-07-03T19:13:23.639Z,25.80
2018-07-03T19:15:28.156Z,25.70
2018-07-03T19:17:32.707Z,25.70
2018-07-03T19:19:37.173Z,25.70
2018-07-03T19:21:41.657Z,25.70
2018-07-03T19:23:46.075Z,25.70
2018-07-03T19:25:50.639Z,25.70
2018-07-03T19:27:55.169Z,25.60
2018-07-03T19:29:59.623Z,25.60
2018-07-03T19:32:05.402Z,25.50
2018-07-03T19:34:10.140Z,25.50
2018-07-03T19:36:14.621Z,25.40
2018-07-03T19:40:23.829Z,25.30
2018-07-03T19:42:28.410Z,25.30
2018-07-03T19:46:37.285Z,25.20
2018-07-03T19:48:41.797Z,25.10
2018-07-03T19:50:46.959Z,25.10
2018-07-03T19:54:56.739Z,24.90
2018-07-03T19:57:01.304Z,24.70
2018-07-03T19:59:05.873Z,24.50
2018-07-03T20:01:10.835Z,24.40
2018-07-03T20:03:16.698Z,24.30
2018-07-03T20:07:25.737Z,24.30
2018-07-03T20:09:30.457Z,24.30
2018-07-03T20:11:35.059Z,24.30
2018-07-03T20:13:39.706Z,24.20
2018-07-03T20:15:44.445Z,24.20
2018-07-03T20:17:49.437Z,24.20
2018-07-03T20:19:54.137Z,24.20
2018-07-03T20:21:58.865Z,24.20
2018-07-03T20:24:03.715Z,24.10
2018-07-03T20:26:09.764Z,24.10
2018-07-03T20:28:14.412Z,24.00
2018-07-03T20:30:19.572Z,24.00
2018-07-03T20:34:28.290Z,23.80
2018-07-03T20:36:32.805Z,23.80
2018-07-03T20:38:37.482Z,23.80
2018-07-03T20:40:52.461Z,23.70
2018-07-03T20:42:58.138Z,23.70
2018-07-03T20:45:02.558Z,23.50
2018-07-03T20:47:07.207Z,23.50
2018-07-03T20:49:11.613Z,23.50
2018-07-03T20:51:16.456Z,23.50
2018-07-03T20:53:22.164Z,23.40
2018-07-03T20:55:26.837Z,23.40
2018-07-03T20:57:31.463Z,23.40
2018-07-03T20:59:36.317Z,23.30
2018-07-03T21:01:40.719Z,23.20
2018-07-03T21:03:47.438Z,23.20
2018-07-03T21:05:52.683Z,23.20
2018-07-03T21:07:57.205Z,23.20
2018-07-03T21:10:02.071Z,23.10
2018-07-03T21:12:06.457Z,23.00
2018-07-03T21:14:11.576Z,23.00
2018-07-03T21:16:16.107Z,23.00
2018-07-03T21:18:20.526Z,22.90
2018-07-03T21:20:24.994Z,22.90
2018-07-03T21:22:29.614Z,22.80
2018-07-03T21:24:35.393Z,22.70
2018-07-03T21:26:41.041Z,22.70
2018-07-03T21:28:45.575Z,22.60
2018-07-03T21:30:49.990Z,22.60
2018-07-03T21:32:55.690Z,22.60
2018-07-03T21:35:00.408Z,22.50
2018-07-03T21:37:04.784Z,22.50
2018-07-03T21:39:09.280Z,22.40
2018-07-03T21:41:13.654Z,22.40
2018-07-03T21:43:18.075Z,22.30
2018-07-03T21:45:22.528Z,22.30
2018-07-03T21:47:26.882Z,22.30
2018-07-03T21:49:31.734Z,22.20
2018-07-03T21:51:36.508Z,22.20
2018-07-03T21:57:49.678Z,22.10
2018-07-03T21:59:54.282Z,22.10
2018-07-03T22:01:59.013Z,22.00
2018-07-03T22:04:03.598Z,22.00
2018-07-03T22:06:08.130Z,21.90
2018-07-03T22:08:13.337Z,21.80
2018-07-03T22:10:30.587Z,21.70
2018-07-03T22:12:35.224Z,21.60
2018-07-03T22:14:41.308Z,21.50
2018-07-03T22:16:45.989Z,21.50
2018-07-03T22:18:50.630Z,21.50
2018-07-03T22:20:55.506Z,21.40
2018-07-03T22:22:59.853Z,21.40
2018-07-03T22:25:04.443Z,21.40
2018-07-03T22:27:08.780Z,21.40
2018-07-03T22:29:13.783Z,21.30
2018-07-03T22:31:18.139Z,21.20
2018-07-03T22:33:22.405Z,21.20
2018-07-03T22:35:26.747Z,21.20
2018-07-03T22:37:31.096Z,21.20
2018-07-03T22:39:35.439Z,21.20
2018-07-03T22:41:39.845Z,21.10
2018-07-03T22:43:44.277Z,21.10
2018-07-03T22:45:48.670Z,21.10
2018-07-03T22:47:53.177Z,21.10
2018-07-03T22:49:58.007Z,21.00
2018-07-03T22:52:02.439Z,21.00
2018-07-03T22:54:06.857Z,20.90
2018-07-03T22:56:11.196Z,20.90
2018-07-03T22:58:15.536Z,20.80
2018-07-03T23:00:20.042Z,20.80
2018-07-03T23:02:24.414Z,20.70
2018-07-03T23:04:28.717Z,20.70
2018-07-03T23:06:33.183Z,20.60
2018-07-03T23:08:37.531Z,20.60
2018-07-03T23:10:41.840Z,20.50
2018-07-03T23:12:46.213Z,20.50
2018-07-03T23:14:51.768Z,20.40
2018-07-03T23:16:56.219Z,20.40
2018-07-03T23:21:05.410Z,20.20
2018-07-03T23:23:09.838Z,20.20
2018-07-03T23:25:14.176Z,20.10
2018-07-03T23:27:18.534Z,20.10
2018-07-03T23:29:22.885Z,20.10
2018-07-03T23:31:27.242Z,20.00
2018-07-03T23:33:31.908Z,20.00
2018-07-03T23:35:36.281Z,20.00
2018-07-03T23:37:40.682Z,19.90
2018-07-03T23:39:45.313Z,19.90
2018-07-03T23:41:49.677Z,19.90
2018-07-03T23:43:54.009Z,19.80
2018-07-03T23:45:59.106Z,19.80
2018-07-03T23:48:14.420Z,19.80
2018-07-03T23:50:35.850Z,19.80
2018-07-03T23:52:57.326Z,19.70
2018-07-03T23:55:18.838Z,19.70
2018-07-03T23:57:40.320Z,19.70
